sensor_id;sensor_type;location;lat;lon;timestamp;P1;durP1;ratioP1;P2;durP2;ratioP2
46589;SDS011;32313;48.722;9.362;2024-03-07T00:00:01;127.90;;;55.40;;
46589;SDS011;32313;48.722;9.362;2024-03-07T00:02:49;120.73;;;58.10;;
46589;SDS011;32313;48.722;9.362;2024-03-07T00:05:17;125.73;;;58.87;;
46589;SDS011;32313;48.722;9.362;2024-03-07T00:07:44;127.53;;;63.43;;
46589;SDS011;32313;48.722;9.362;2024-03-07T00:10:10;122.27;;;61.20;;
46589;SDS011;32313;48.722;9.362;2024-03-07T00:12:37;124.77;;;59.23;;
46589;SDS011;32313;48.722;9.362;2024-03-07T00:15:09;117.77;;;58.73;;
46589;SDS011;32313;48.722;9.362;2024-03-07T00:17:36;137.97;;;63.90;;
46589;SDS011;32313;48.722;9.362;2024-03-07T00:20:03;121.53;;;66.40;;
46589;SDS011;32313;48.722;9.362;2024-03-07T00:22:32;118.90;;;61.57;;
46589;SDS011;32313;48.722;9.362;2024-03-07T00:24:58;135.60;;;68.83;;
46589;SDS011;32313;48.722;9.362;2024-03-07T00:27:24;131.93;;;69.00;;
46589;SDS011;32313;48.722;9.362;2024-03-07T00:29:51;137.83;;;68.13;;
46589;SDS011;32313;48.722;9.362;2024-03-07T00:32:20;128.23;;;66.80;;
46589;SDS011;32313;48.722;9.362;2024-03-07T00:34:46;121.13;;;68.47;;
46589;SDS011;32313;48.722;9.362;2024-03-07T00:37:12;132.10;;;66.87;;
46589;SDS011;32313;48.722;9.362;2024-03-07T00:39:38;126.70;;;64.17;;
46589;SDS011;32313;48.722;9.362;2024-03-07T00:42:04;120.37;;;63.23;;
46589;SDS011;32313;48.722;9.362;2024-03-07T00:44:30;129.93;;;68.57;;
46589;SDS011;32313;48.722;9.362;2024-03-07T00:46:55;116.93;;;60.70;;
46589;SDS011;32313;48.722;9.362;2024-03-07T00:49:22;121.67;;;65.33;;
46589;SDS011;32313;48.722;9.362;2024-03-07T00:51:48;123.63;;;66.90;;
46589;SDS011;32313;48.722;9.362;2024-03-07T00:54:14;126.20;;;65.87;;
46589;SDS011;32313;48.722;9.362;2024-03-07T00:56:41;122.07;;;67.40;;
46589;SDS011;32313;48.722;9.362;2024-03-07T00:59:07;116.97;;;62.43;;
46589;SDS011;32313;48.722;9.362;2024-03-07T01:01:33;119.67;;;64.43;;
46589;SDS011;32313;48.722;9.362;2024-03-07T01:04:01;106.97;;;65.00;;
46589;SDS011;32313;48.722;9.362;2024-03-07T01:06:28;117.77;;;66.97;;
46589;SDS011;32313;48.722;9.362;2024-03-07T01:08:53;122.53;;;69.70;;
46589;SDS011;32313;48.722;9.362;2024-03-07T01:11:19;115.17;;;68.33;;
46589;SDS011;32313;48.722;9.362;2024-03-07T01:13:45;109.97;;;64.17;;
46589;SDS011;32313;48.722;9.362;2024-03-07T01:16:12;126.13;;;71.10;;
46589;SDS011;32313;48.722;9.362;2024-03-07T01:18:39;108.33;;;63.00;;
46589;SDS011;32313;48.722;9.362;2024-03-07T01:21:04;117.30;;;65.33;;
46589;SDS011;32313;48.722;9.362;2024-03-07T01:23:31;105.73;;;65.17;;
46589;SDS011;32313;48.722;9.362;2024-03-07T01:25:57;110.17;;;66.17;;
46589;SDS011;32313;48.722;9.362;2024-03-07T01:28:27;120.57;;;67.23;;
46589;SDS011;32313;48.722;9.362;2024-03-07T01:30:55;111.63;;;67.00;;
46589;SDS011;32313;48.722;9.362;2024-03-07T01:33:22;107.57;;;61.07;;
46589;SDS011;32313;48.722;9.362;2024-03-07T01:35:48;122.00;;;66.13;;
46589;SDS011;32313;48.722;9.362;2024-03-07T01:38:14;125.03;;;70.23;;
46589;SDS011;32313;48.722;9.362;2024-03-07T01:40:43;115.80;;;68.77;;
46589;SDS011;32313;48.722;9.362;2024-03-07T01:43:10;118.13;;;63.57;;
46589;SDS011;32313;48.722;9.362;2024-03-07T01:45:36;128.80;;;67.60;;
46589;SDS011;32313;48.722;9.362;2024-03-07T01:48:06;129.00;;;69.07;;
46589;SDS011;32313;48.722;9.362;2024-03-07T01:50:37;128.33;;;69.57;;
46589;SDS011;32313;48.722;9.362;2024-03-07T01:53:03;113.60;;;65.73;;
46589;SDS011;32313;48.722;9.362;2024-03-07T01:55:31;119.50;;;68.30;;
46589;SDS011;32313;48.722;9.362;2024-03-07T01:57:59;120.37;;;67.60;;
46589;SDS011;32313;48.722;9.362;2024-03-07T02:00:25;136.30;;;73.93;;
46589;SDS011;32313;48.722;9.362;2024-03-07T02:02:51;121.57;;;66.90;;
46589;SDS011;32313;48.722;9.362;2024-03-07T02:05:18;134.30;;;73.07;;
46589;SDS011;32313;48.722;9.362;2024-03-07T02:07:45;124.00;;;69.83;;
46589;SDS011;32313;48.722;9.362;2024-03-07T02:10:10;126.93;;;69.57;;
46589;SDS011;32313;48.722;9.362;2024-03-07T02:12:36;129.33;;;69.53;;
46589;SDS011;32313;48.722;9.362;2024-03-07T02:15:02;135.13;;;73.13;;
46589;SDS011;32313;48.722;9.362;2024-03-07T02:17:28;135.17;;;69.17;;
46589;SDS011;32313;48.722;9.362;2024-03-07T02:19:53;142.90;;;74.63;;
46589;SDS011;32313;48.722;9.362;2024-03-07T02:22:19;124.83;;;71.10;;
46589;SDS011;32313;48.722;9.362;2024-03-07T02:24:45;133.30;;;72.33;;
46589;SDS011;32313;48.722;9.362;2024-03-07T02:27:11;133.10;;;74.57;;
46589;SDS011;32313;48.722;9.362;2024-03-07T02:29:39;144.00;;;74.40;;
46589;SDS011;32313;48.722;9.362;2024-03-07T02:32:26;132.13;;;70.73;;
46589;SDS011;32313;48.722;9.362;2024-03-07T02:34:52;128.27;;;73.67;;
46589;SDS011;32313;48.722;9.362;2024-03-07T02:37:17;137.90;;;74.37;;
46589;SDS011;32313;48.722;9.362;2024-03-07T02:39:43;135.43;;;75.53;;
46589;SDS011;32313;48.722;9.362;2024-03-07T02:42:09;138.20;;;77.70;;
46589;SDS011;32313;48.722;9.362;2024-03-07T02:44:34;126.37;;;72.93;;
46589;SDS011;32313;48.722;9.362;2024-03-07T02:47:00;129.43;;;71.43;;
46589;SDS011;32313;48.722;9.362;2024-03-07T02:49:29;138.93;;;76.03;;
46589;SDS011;32313;48.722;9.362;2024-03-07T02:51:54;131.17;;;73.27;;
46589;SDS011;32313;48.722;9.362;2024-03-07T02:54:20;135.50;;;75.67;;
46589;SDS011;32313;48.722;9.362;2024-03-07T02:56:46;141.67;;;74.73;;
46589;SDS011;32313;48.722;9.362;2024-03-07T02:59:12;131.30;;;73.23;;
46589;SDS011;32313;48.722;9.362;2024-03-07T03:01:38;146.13;;;75.00;;
46589;SDS011;32313;48.722;9.362;2024-03-07T03:04:04;137.93;;;73.30;;
46589;SDS011;32313;48.722;9.362;2024-03-07T03:06:30;143.77;;;73.63;;
46589;SDS011;32313;48.722;9.362;2024-03-07T03:08:56;142.37;;;74.27;;
46589;SDS011;32313;48.722;9.362;2024-03-07T03:11:23;132.67;;;71.07;;
46589;SDS011;32313;48.722;9.362;2024-03-07T03:13:51;138.80;;;72.57;;
46589;SDS011;32313;48.722;9.362;2024-03-07T03:16:17;151.97;;;77.70;;
46589;SDS011;32313;48.722;9.362;2024-03-07T03:18:43;130.27;;;71.67;;
46589;SDS011;32313;48.722;9.362;2024-03-07T03:21:08;132.27;;;72.27;;
46589;SDS011;32313;48.722;9.362;2024-03-07T03:23:34;139.10;;;74.47;;
46589;SDS011;32313;48.722;9.362;2024-03-07T03:26:00;147.20;;;76.70;;
46589;SDS011;32313;48.722;9.362;2024-03-07T03:28:26;142.33;;;78.43;;
46589;SDS011;32313;48.722;9.362;2024-03-07T03:30:53;130.13;;;68.63;;
46589;SDS011;32313;48.722;9.362;2024-03-07T03:33:19;143.93;;;73.03;;
46589;SDS011;32313;48.722;9.362;2024-03-07T03:35:46;113.67;;;62.73;;
46589;SDS011;32313;48.722;9.362;2024-03-07T03:38:12;133.70;;;73.77;;
46589;SDS011;32313;48.722;9.362;2024-03-07T03:40:38;132.97;;;70.27;;
46589;SDS011;32313;48.722;9.362;2024-03-07T03:43:03;135.33;;;69.87;;
46589;SDS011;32313;48.722;9.362;2024-03-07T03:45:29;141.93;;;75.77;;
46589;SDS011;32313;48.722;9.362;2024-03-07T03:47:57;145.07;;;72.97;;
46589;SDS011;32313;48.722;9.362;2024-03-07T03:50:23;138.43;;;73.03;;
46589;SDS011;32313;48.722;9.362;2024-03-07T03:52:48;144.40;;;78.20;;
46589;SDS011;32313;48.722;9.362;2024-03-07T03:55:15;135.13;;;69.60;;
46589;SDS011;32313;48.722;9.362;2024-03-07T03:57:41;124.83;;;68.13;;
46589;SDS011;32313;48.722;9.362;2024-03-07T04:00:08;157.77;;;80.30;;
46589;SDS011;32313;48.722;9.362;2024-03-07T04:02:44;142.00;;;74.97;;
46589;SDS011;32313;48.722;9.362;2024-03-07T04:05:13;147.77;;;76.90;;
46589;SDS011;32313;48.722;9.362;2024-03-07T04:07:40;146.07;;;76.77;;
46589;SDS011;32313;48.722;9.362;2024-03-07T04:10:10;128.47;;;70.07;;
46589;SDS011;32313;48.722;9.362;2024-03-07T04:12:45;134.73;;;73.23;;
46589;SDS011;32313;48.722;9.362;2024-03-07T04:15:12;146.73;;;74.50;;
46589;SDS011;32313;48.722;9.362;2024-03-07T04:17:41;140.43;;;73.60;;
46589;SDS011;32313;48.722;9.362;2024-03-07T04:20:08;150.80;;;78.00;;
46589;SDS011;32313;48.722;9.362;2024-03-07T04:22:38;142.83;;;74.03;;
46589;SDS011;32313;48.722;9.362;2024-03-07T04:25:07;138.27;;;77.50;;
46589;SDS011;32313;48.722;9.362;2024-03-07T04:27:34;139.10;;;73.27;;
46589;SDS011;32313;48.722;9.362;2024-03-07T04:30:02;150.90;;;75.77;;
46589;SDS011;32313;48.722;9.362;2024-03-07T04:32:29;135.00;;;68.33;;
46589;SDS011;32313;48.722;9.362;2024-03-07T04:34:55;152.90;;;75.43;;
46589;SDS011;32313;48.722;9.362;2024-03-07T04:37:24;137.67;;;69.80;;
46589;SDS011;32313;48.722;9.362;2024-03-07T04:39:49;136.23;;;67.83;;
46589;SDS011;32313;48.722;9.362;2024-03-07T04:42:15;124.73;;;67.40;;
46589;SDS011;32313;48.722;9.362;2024-03-07T04:44:41;142.40;;;75.53;;
46589;SDS011;32313;48.722;9.362;2024-03-07T04:47:07;141.97;;;71.77;;
46589;SDS011;32313;48.722;9.362;2024-03-07T04:49:33;140.63;;;72.40;;
46589;SDS011;32313;48.722;9.362;2024-03-07T04:52:01;136.20;;;74.37;;
46589;SDS011;32313;48.722;9.362;2024-03-07T04:54:29;148.70;;;75.90;;
46589;SDS011;32313;48.722;9.362;2024-03-07T04:56:55;139.83;;;75.87;;
46589;SDS011;32313;48.722;9.362;2024-03-07T04:59:21;130.43;;;68.33;;
46589;SDS011;32313;48.722;9.362;2024-03-07T05:01:48;121.97;;;66.17;;
46589;SDS011;32313;48.722;9.362;2024-03-07T05:04:15;130.53;;;69.67;;
46589;SDS011;32313;48.722;9.362;2024-03-07T05:06:41;136.27;;;74.17;;
46589;SDS011;32313;48.722;9.362;2024-03-07T05:09:08;131.63;;;72.80;;
46589;SDS011;32313;48.722;9.362;2024-03-07T05:11:35;133.90;;;70.23;;
46589;SDS011;32313;48.722;9.362;2024-03-07T05:14:01;124.83;;;66.20;;
46589;SDS011;32313;48.722;9.362;2024-03-07T05:16:28;138.87;;;72.17;;
46589;SDS011;32313;48.722;9.362;2024-03-07T05:18:55;129.57;;;68.90;;
46589;SDS011;32313;48.722;9.362;2024-03-07T05:21:24;130.40;;;70.07;;
46589;SDS011;32313;48.722;9.362;2024-03-07T05:23:59;128.17;;;70.63;;
46589;SDS011;32313;48.722;9.362;2024-03-07T05:26:26;141.83;;;73.07;;
46589;SDS011;32313;48.722;9.362;2024-03-07T05:28:52;128.83;;;67.03;;
46589;SDS011;32313;48.722;9.362;2024-03-07T05:31:21;130.10;;;66.73;;
46589;SDS011;32313;48.722;9.362;2024-03-07T05:33:47;137.43;;;71.27;;
46589;SDS011;32313;48.722;9.362;2024-03-07T05:36:13;134.43;;;70.87;;
46589;SDS011;32313;48.722;9.362;2024-03-07T05:38:43;136.20;;;71.87;;
46589;SDS011;32313;48.722;9.362;2024-03-07T05:41:09;135.43;;;71.40;;
46589;SDS011;32313;48.722;9.362;2024-03-07T05:43:38;127.17;;;67.07;;
46589;SDS011;32313;48.722;9.362;2024-03-07T05:46:04;135.43;;;68.93;;
46589;SDS011;32313;48.722;9.362;2024-03-07T05:48:35;132.13;;;69.47;;
46589;SDS011;32313;48.722;9.362;2024-03-07T05:51:01;121.07;;;65.73;;
46589;SDS011;32313;48.722;9.362;2024-03-07T05:53:27;123.40;;;64.83;;
46589;SDS011;32313;48.722;9.362;2024-03-07T05:55:52;131.03;;;67.63;;
46589;SDS011;32313;48.722;9.362;2024-03-07T05:58:18;126.70;;;69.63;;
46589;SDS011;32313;48.722;9.362;2024-03-07T06:00:47;122.97;;;69.93;;
46589;SDS011;32313;48.722;9.362;2024-03-07T06:03:18;123.67;;;69.70;;
46589;SDS011;32313;48.722;9.362;2024-03-07T06:05:49;110.27;;;61.40;;
46589;SDS011;32313;48.722;9.362;2024-03-07T06:08:16;133.40;;;70.73;;
46589;SDS011;32313;48.722;9.362;2024-03-07T06:10:43;140.80;;;75.87;;
46589;SDS011;32313;48.722;9.362;2024-03-07T06:13:09;140.60;;;75.00;;
46589;SDS011;32313;48.722;9.362;2024-03-07T06:15:36;136.40;;;72.87;;
46589;SDS011;32313;48.722;9.362;2024-03-07T06:18:07;132.03;;;70.70;;
46589;SDS011;32313;48.722;9.362;2024-03-07T06:20:33;138.43;;;70.90;;
46589;SDS011;32313;48.722;9.362;2024-03-07T06:23:00;125.23;;;69.40;;
46589;SDS011;32313;48.722;9.362;2024-03-07T06:25:30;132.03;;;68.03;;
46589;SDS011;32313;48.722;9.362;2024-03-07T06:28:10;124.73;;;66.23;;
46589;SDS011;32313;48.722;9.362;2024-03-07T06:30:39;124.27;;;63.60;;
46589;SDS011;32313;48.722;9.362;2024-03-07T06:33:06;124.20;;;64.43;;
46589;SDS011;32313;48.722;9.362;2024-03-07T06:35:32;125.30;;;65.87;;
46589;SDS011;32313;48.722;9.362;2024-03-07T06:38:02;112.60;;;61.27;;
46589;SDS011;32313;48.722;9.362;2024-03-07T06:40:29;109.33;;;62.33;;
46589;SDS011;32313;48.722;9.362;2024-03-07T06:42:55;102.73;;;63.27;;
46589;SDS011;32313;48.722;9.362;2024-03-07T06:45:21;122.73;;;67.03;;
46589;SDS011;32313;48.722;9.362;2024-03-07T06:47:49;114.87;;;61.30;;
46589;SDS011;32313;48.722;9.362;2024-03-07T06:50:17;108.30;;;63.67;;
46589;SDS011;32313;48.722;9.362;2024-03-07T06:52:47;107.37;;;61.77;;
46589;SDS011;32313;48.722;9.362;2024-03-07T06:55:17;98.53;;;60.57;;
46589;SDS011;32313;48.722;9.362;2024-03-07T06:57:44;106.50;;;61.13;;
46589;SDS011;32313;48.722;9.362;2024-03-07T07:00:11;97.93;;;59.20;;
46589;SDS011;32313;48.722;9.362;2024-03-07T07:02:40;94.93;;;58.90;;
46589;SDS011;32313;48.722;9.362;2024-03-07T07:05:09;92.37;;;55.50;;
46589;SDS011;32313;48.722;9.362;2024-03-07T07:07:49;95.20;;;56.53;;
46589;SDS011;32313;48.722;9.362;2024-03-07T07:10:18;97.07;;;57.90;;
46589;SDS011;32313;48.722;9.362;2024-03-07T07:12:44;94.93;;;58.63;;
46589;SDS011;32313;48.722;9.362;2024-03-07T07:15:13;76.37;;;52.47;;
46589;SDS011;32313;48.722;9.362;2024-03-07T07:17:41;75.27;;;51.03;;
46589;SDS011;32313;48.722;9.362;2024-03-07T07:20:10;76.73;;;49.70;;
46589;SDS011;32313;48.722;9.362;2024-03-07T07:22:39;77.33;;;50.50;;
46589;SDS011;32313;48.722;9.362;2024-03-07T07:25:05;74.50;;;50.07;;
46589;SDS011;32313;48.722;9.362;2024-03-07T07:27:38;74.30;;;50.93;;
46589;SDS011;32313;48.722;9.362;2024-03-07T07:30:15;62.70;;;45.53;;
46589;SDS011;32313;48.722;9.362;2024-03-07T07:32:42;65.87;;;47.37;;
46589;SDS011;32313;48.722;9.362;2024-03-07T07:35:10;65.33;;;47.17;;
46589;SDS011;32313;48.722;9.362;2024-03-07T07:37:52;63.93;;;48.60;;
46589;SDS011;32313;48.722;9.362;2024-03-07T07:40:19;61.07;;;46.60;;
46589;SDS011;32313;48.722;9.362;2024-03-07T07:42:48;64.27;;;48.50;;
46589;SDS011;32313;48.722;9.362;2024-03-07T07:45:16;60.37;;;46.20;;
46589;SDS011;32313;48.722;9.362;2024-03-07T07:47:43;60.70;;;46.33;;
46589;SDS011;32313;48.722;9.362;2024-03-07T07:50:11;56.67;;;44.63;;
46589;SDS011;32313;48.722;9.362;2024-03-07T07:52:54;59.93;;;44.20;;
46589;SDS011;32313;48.722;9.362;2024-03-07T07:55:23;66.67;;;48.43;;
46589;SDS011;32313;48.722;9.362;2024-03-07T07:57:51;64.20;;;47.43;;
46589;SDS011;32313;48.722;9.362;2024-03-07T08:00:29;66.87;;;50.00;;
46589;SDS011;32313;48.722;9.362;2024-03-07T08:03:02;64.43;;;48.97;;
46589;SDS011;32313;48.722;9.362;2024-03-07T08:05:32;61.37;;;47.13;;
46589;SDS011;32313;48.722;9.362;2024-03-07T08:07:59;65.87;;;49.10;;
46589;SDS011;32313;48.722;9.362;2024-03-07T08:10:30;60.00;;;46.80;;
46589;SDS011;32313;48.722;9.362;2024-03-07T08:12:56;60.00;;;46.37;;
46589;SDS011;32313;48.722;9.362;2024-03-07T08:15:24;53.73;;;42.53;;
46589;SDS011;32313;48.722;9.362;2024-03-07T08:17:51;59.60;;;44.17;;
46589;SDS011;32313;48.722;9.362;2024-03-07T08:20:18;61.90;;;48.70;;
46589;SDS011;32313;48.722;9.362;2024-03-07T08:22:47;55.33;;;44.47;;
46589;SDS011;32313;48.722;9.362;2024-03-07T08:25:18;61.90;;;47.67;;
46589;SDS011;32313;48.722;9.362;2024-03-07T08:27:47;63.87;;;47.53;;
46589;SDS011;32313;48.722;9.362;2024-03-07T08:30:13;58.90;;;46.83;;
46589;SDS011;32313;48.722;9.362;2024-03-07T08:32:40;54.63;;;45.50;;
46589;SDS011;32313;48.722;9.362;2024-03-07T08:35:10;56.07;;;43.53;;
46589;SDS011;32313;48.722;9.362;2024-03-07T08:37:40;57.30;;;43.17;;
46589;SDS011;32313;48.722;9.362;2024-03-07T08:40:07;56.37;;;44.63;;
46589;SDS011;32313;48.722;9.362;2024-03-07T08:42:38;51.73;;;42.00;;
46589;SDS011;32313;48.722;9.362;2024-03-07T08:45:07;58.20;;;45.57;;
46589;SDS011;32313;48.722;9.362;2024-03-07T08:47:35;57.00;;;44.33;;
46589;SDS011;32313;48.722;9.362;2024-03-07T08:50:02;51.23;;;41.73;;
46589;SDS011;32313;48.722;9.362;2024-03-07T08:52:33;51.63;;;42.90;;
46589;SDS011;32313;48.722;9.362;2024-03-07T08:55:02;48.73;;;41.03;;
46589;SDS011;32313;48.722;9.362;2024-03-07T08:57:30;53.03;;;43.83;;
46589;SDS011;32313;48.722;9.362;2024-03-07T08:59:56;55.17;;;43.73;;
46589;SDS011;32313;48.722;9.362;2024-03-07T09:02:22;52.53;;;42.53;;
46589;SDS011;32313;48.722;9.362;2024-03-07T09:04:48;51.40;;;42.37;;
46589;SDS011;32313;48.722;9.362;2024-03-07T09:07:15;50.93;;;42.30;;
46589;SDS011;32313;48.722;9.362;2024-03-07T09:09:42;52.53;;;41.63;;
46589;SDS011;32313;48.722;9.362;2024-03-07T09:12:10;50.83;;;41.67;;
46589;SDS011;32313;48.722;9.362;2024-03-07T09:14:36;53.27;;;41.23;;
46589;SDS011;32313;48.722;9.362;2024-03-07T09:17:03;55.03;;;45.17;;
46589;SDS011;32313;48.722;9.362;2024-03-07T09:19:34;48.80;;;40.97;;
46589;SDS011;32313;48.722;9.362;2024-03-07T09:22:00;55.27;;;44.50;;
46589;SDS011;32313;48.722;9.362;2024-03-07T09:24:28;57.23;;;42.83;;
46589;SDS011;32313;48.722;9.362;2024-03-07T09:26:55;51.90;;;42.03;;
46589;SDS011;32313;48.722;9.362;2024-03-07T09:29:21;54.60;;;45.27;;
46589;SDS011;32313;48.722;9.362;2024-03-07T09:31:51;53.60;;;42.77;;
46589;SDS011;32313;48.722;9.362;2024-03-07T09:34:18;48.17;;;40.67;;
46589;SDS011;32313;48.722;9.362;2024-03-07T09:36:45;52.93;;;42.53;;
46589;SDS011;32313;48.722;9.362;2024-03-07T09:39:12;48.90;;;41.53;;
46589;SDS011;32313;48.722;9.362;2024-03-07T09:41:37;49.63;;;40.47;;
46589;SDS011;32313;48.722;9.362;2024-03-07T09:44:04;52.77;;;41.33;;
46589;SDS011;32313;48.722;9.362;2024-03-07T09:46:31;47.07;;;39.40;;
46589;SDS011;32313;48.722;9.362;2024-03-07T09:48:57;47.93;;;39.83;;
46589;SDS011;32313;48.722;9.362;2024-03-07T09:51:23;44.77;;;36.07;;
46589;SDS011;32313;48.722;9.362;2024-03-07T09:53:50;39.93;;;34.90;;
46589;SDS011;32313;48.722;9.362;2024-03-07T09:56:21;40.67;;;34.07;;
46589;SDS011;32313;48.722;9.362;2024-03-07T09:58:51;40.40;;;33.80;;
46589;SDS011;32313;48.722;9.362;2024-03-07T10:01:20;41.03;;;34.87;;
46589;SDS011;32313;48.722;9.362;2024-03-07T10:03:46;42.60;;;34.53;;
46589;SDS011;32313;48.722;9.362;2024-03-07T10:06:13;37.43;;;32.53;;
46589;SDS011;32313;48.722;9.362;2024-03-07T10:08:42;37.60;;;33.03;;
46589;SDS011;32313;48.722;9.362;2024-03-07T10:11:08;37.10;;;31.33;;
46589;SDS011;32313;48.722;9.362;2024-03-07T10:13:34;38.87;;;32.57;;
46589;SDS011;32313;48.722;9.362;2024-03-07T10:16:03;35.93;;;31.27;;
46589;SDS011;32313;48.722;9.362;2024-03-07T10:18:30;35.13;;;31.33;;
46589;SDS011;32313;48.722;9.362;2024-03-07T10:20:56;40.57;;;33.63;;
46589;SDS011;32313;48.722;9.362;2024-03-07T10:23:23;36.53;;;30.13;;
46589;SDS011;32313;48.722;9.362;2024-03-07T10:25:51;35.43;;;31.03;;
46589;SDS011;32313;48.722;9.362;2024-03-07T10:28:19;34.30;;;29.33;;
46589;SDS011;32313;48.722;9.362;2024-03-07T10:30:46;34.77;;;29.77;;
46589;SDS011;32313;48.722;9.362;2024-03-07T10:33:15;38.63;;;30.67;;
46589;SDS011;32313;48.722;9.362;2024-03-07T10:35:41;32.57;;;28.17;;
46589;SDS011;32313;48.722;9.362;2024-03-07T10:38:07;38.00;;;30.40;;
46589;SDS011;32313;48.722;9.362;2024-03-07T10:40:37;36.37;;;29.97;;
46589;SDS011;32313;48.722;9.362;2024-03-07T10:43:07;36.90;;;31.37;;
46589;SDS011;32313;48.722;9.362;2024-03-07T10:45:37;34.40;;;28.30;;
46589;SDS011;32313;48.722;9.362;2024-03-07T10:48:12;34.90;;;28.90;;
46589;SDS011;32313;48.722;9.362;2024-03-07T10:50:52;34.53;;;28.17;;
46589;SDS011;32313;48.722;9.362;2024-03-07T10:53:45;40.93;;;31.23;;
46589;SDS011;32313;48.722;9.362;2024-03-07T10:56:56;35.07;;;29.70;;
46589;SDS011;32313;48.722;9.362;2024-03-07T10:59:39;36.47;;;30.27;;
46589;SDS011;32313;48.722;9.362;2024-03-07T11:02:20;34.30;;;29.80;;
46589;SDS011;32313;48.722;9.362;2024-03-07T11:04:58;38.87;;;30.53;;
46589;SDS011;32313;48.722;9.362;2024-03-07T11:07:25;41.87;;;33.60;;
46589;SDS011;32313;48.722;9.362;2024-03-07T11:09:52;34.67;;;29.40;;
46589;SDS011;32313;48.722;9.362;2024-03-07T11:12:23;38.27;;;30.67;;
46589;SDS011;32313;48.722;9.362;2024-03-07T11:14:52;37.83;;;30.80;;
46589;SDS011;32313;48.722;9.362;2024-03-07T11:17:20;41.67;;;30.97;;
46589;SDS011;32313;48.722;9.362;2024-03-07T11:19:47;36.90;;;29.37;;
46589;SDS011;32313;48.722;9.362;2024-03-07T11:22:30;35.40;;;30.83;;
46589;SDS011;32313;48.722;9.362;2024-03-07T11:25:04;36.97;;;29.87;;
46589;SDS011;32313;48.722;9.362;2024-03-07T11:27:38;36.00;;;31.07;;
46589;SDS011;32313;48.722;9.362;2024-03-07T11:30:05;38.20;;;32.70;;
46589;SDS011;32313;48.722;9.362;2024-03-07T11:32:35;35.73;;;30.97;;
46589;SDS011;32313;48.722;9.362;2024-03-07T11:35:10;37.97;;;30.93;;
46589;SDS011;32313;48.722;9.362;2024-03-07T11:37:40;35.63;;;28.67;;
46589;SDS011;32313;48.722;9.362;2024-03-07T11:40:13;36.07;;;30.13;;
46589;SDS011;32313;48.722;9.362;2024-03-07T11:43:00;36.93;;;30.97;;
46589;SDS011;32313;48.722;9.362;2024-03-07T11:45:29;39.23;;;34.13;;
46589;SDS011;32313;48.722;9.362;2024-03-07T11:47:59;33.10;;;29.50;;
46589;SDS011;32313;48.722;9.362;2024-03-07T11:50:32;37.40;;;32.80;;
46589;SDS011;32313;48.722;9.362;2024-03-07T11:53:00;37.23;;;31.90;;
46589;SDS011;32313;48.722;9.362;2024-03-07T11:55:27;38.37;;;32.43;;
46589;SDS011;32313;48.722;9.362;2024-03-07T11:57:53;38.60;;;31.63;;
46589;SDS011;32313;48.722;9.362;2024-03-07T12:00:21;35.53;;;31.73;;
46589;SDS011;32313;48.722;9.362;2024-03-07T12:02:49;36.40;;;31.13;;
46589;SDS011;32313;48.722;9.362;2024-03-07T12:05:15;32.03;;;28.57;;
46589;SDS011;32313;48.722;9.362;2024-03-07T12:07:41;33.47;;;29.20;;
46589;SDS011;32313;48.722;9.362;2024-03-07T12:10:08;34.87;;;30.43;;
46589;SDS011;32313;48.722;9.362;2024-03-07T12:12:35;35.53;;;31.23;;
46589;SDS011;32313;48.722;9.362;2024-03-07T12:15:04;36.03;;;31.20;;
46589;SDS011;32313;48.722;9.362;2024-03-07T12:17:41;41.27;;;32.50;;
46589;SDS011;32313;48.722;9.362;2024-03-07T12:20:08;35.80;;;31.60;;
46589;SDS011;32313;48.722;9.362;2024-03-07T12:22:50;35.07;;;30.23;;
46589;SDS011;32313;48.722;9.362;2024-03-07T12:25:18;33.77;;;30.10;;
46589;SDS011;32313;48.722;9.362;2024-03-07T12:27:47;31.03;;;27.67;;
46589;SDS011;32313;48.722;9.362;2024-03-07T12:30:27;34.70;;;30.67;;
46589;SDS011;32313;48.722;9.362;2024-03-07T12:33:01;33.03;;;28.73;;
46589;SDS011;32313;48.722;9.362;2024-03-07T12:35:32;35.53;;;31.30;;
46589;SDS011;32313;48.722;9.362;2024-03-07T12:37:58;36.70;;;32.20;;
46589;SDS011;32313;48.722;9.362;2024-03-07T12:40:25;35.43;;;30.87;;
46589;SDS011;32313;48.722;9.362;2024-03-07T12:42:54;35.47;;;30.70;;
46589;SDS011;32313;48.722;9.362;2024-03-07T12:45:19;33.83;;;30.23;;
46589;SDS011;32313;48.722;9.362;2024-03-07T12:47:46;29.70;;;26.47;;
46589;SDS011;32313;48.722;9.362;2024-03-07T12:50:16;34.67;;;30.33;;
46589;SDS011;32313;48.722;9.362;2024-03-07T12:52:45;32.43;;;28.90;;
46589;SDS011;32313;48.722;9.362;2024-03-07T12:55:17;34.50;;;29.97;;
46589;SDS011;32313;48.722;9.362;2024-03-07T12:57:49;41.30;;;32.43;;
46589;SDS011;32313;48.722;9.362;2024-03-07T13:00:16;33.93;;;30.27;;
46589;SDS011;32313;48.722;9.362;2024-03-07T13:02:46;35.73;;;31.90;;
46589;SDS011;32313;48.722;9.362;2024-03-07T13:05:12;36.27;;;31.50;;
46589;SDS011;32313;48.722;9.362;2024-03-07T13:07:46;36.03;;;32.03;;
46589;SDS011;32313;48.722;9.362;2024-03-07T13:10:15;34.43;;;30.60;;
46589;SDS011;32313;48.722;9.362;2024-03-07T13:12:41;34.70;;;29.90;;
46589;SDS011;32313;48.722;9.362;2024-03-07T13:15:10;33.33;;;28.67;;
46589;SDS011;32313;48.722;9.362;2024-03-07T13:17:39;34.17;;;30.40;;
46589;SDS011;32313;48.722;9.362;2024-03-07T13:20:05;32.23;;;28.60;;
46589;SDS011;32313;48.722;9.362;2024-03-07T13:22:43;31.47;;;28.07;;
46589;SDS011;32313;48.722;9.362;2024-03-07T13:25:16;33.27;;;29.77;;
46589;SDS011;32313;48.722;9.362;2024-03-07T13:27:44;35.17;;;31.40;;
46589;SDS011;32313;48.722;9.362;2024-03-07T13:30:23;34.07;;;30.47;;
46589;SDS011;32313;48.722;9.362;2024-03-07T13:32:55;35.67;;;30.27;;
46589;SDS011;32313;48.722;9.362;2024-03-07T13:35:23;35.23;;;31.47;;
46589;SDS011;32313;48.722;9.362;2024-03-07T13:37:50;36.20;;;32.60;;
46589;SDS011;32313;48.722;9.362;2024-03-07T13:40:19;34.97;;;31.13;;
46589;SDS011;32313;48.722;9.362;2024-03-07T13:42:48;38.10;;;32.43;;
46589;SDS011;32313;48.722;9.362;2024-03-07T13:45:17;36.50;;;32.63;;
46589;SDS011;32313;48.722;9.362;2024-03-07T13:47:45;37.20;;;31.43;;
46589;SDS011;32313;48.722;9.362;2024-03-07T13:50:15;37.13;;;32.90;;
46589;SDS011;32313;48.722;9.362;2024-03-07T13:52:44;37.20;;;33.17;;
46589;SDS011;32313;48.722;9.362;2024-03-07T13:55:30;34.03;;;30.30;;
46589;SDS011;32313;48.722;9.362;2024-03-07T13:58:05;34.00;;;30.07;;
46589;SDS011;32313;48.722;9.362;2024-03-07T14:00:45;33.93;;;29.83;;
46589;SDS011;32313;48.722;9.362;2024-03-07T14:03:32;31.80;;;27.87;;
46589;SDS011;32313;48.722;9.362;2024-03-07T14:20:55;35.73;;;29.83;;
46589;SDS011;32313;48.722;9.362;2024-03-07T14:32:09;34.77;;;30.17;;
46589;SDS011;32313;48.722;9.362;2024-03-07T14:34:58;34.70;;;30.80;;
46589;SDS011;32313;48.722;9.362;2024-03-07T14:40:49;37.20;;;31.07;;
46589;SDS011;32313;48.722;9.362;2024-03-07T14:43:17;33.80;;;30.10;;
46589;SDS011;32313;48.722;9.362;2024-03-07T14:45:44;38.17;;;31.23;;
46589;SDS011;32313;48.722;9.362;2024-03-07T14:48:11;39.80;;;30.77;;
46589;SDS011;32313;48.722;9.362;2024-03-07T14:50:40;37.83;;;31.73;;